createdAt,value
2022-09-30T00:01:50.697Z,94482.84
2022-09-30T00:04:20.765Z,94479.69
2022-09-30T00:06:48.120Z,94483.19
2022-09-30T00:09:15.236Z,94481.94
2022-09-30T00:11:42.855Z,94481.16
2022-09-30T00:14:16.067Z,94482.63
2022-09-30T00:16:43.166Z,94486.13
2022-09-30T00:19:10.116Z,94483.41
2022-09-30T00:21:36.702Z,94489.19
2022-09-30T00:24:04.116Z,94491.56
2022-09-30T00:26:31.318Z,94489.63
2022-09-30T00:28:59.439Z,94493.50
2022-09-30T00:31:28.243Z,94502.19
2022-09-30T00:33:58.054Z,94510.22
2022-09-30T00:36:24.598Z,94507.50
2022-09-30T00:38:51.115Z,94502.88
2022-09-30T00:41:17.629Z,94509.88
2022-09-30T00:43:46.960Z,94501.75
2022-09-30T00:46:31.492Z,94499.81
2022-09-30T00:49:02.825Z,94498.00
2022-09-30T00:51:36.603Z,94504.22
2022-09-30T00:54:09.694Z,94494.97
2022-09-30T00:56:41.104Z,94497.66
2022-09-30T00:59:13.727Z,94499.25
2022-09-30T01:01:41.843Z,94505.47
2022-09-30T01:04:22.531Z,94511.78
2022-09-30T01:06:49.888Z,94512.03
2022-09-30T01:09:17.705Z,94514.75
2022-09-30T01:11:44.399Z,94519.38
2022-09-30T01:14:15.269Z,94515.09
2022-09-30T01:17:12.353Z,94515.88
2022-09-30T01:19:59.795Z,94512.38
2022-09-30T01:23:10.408Z,94510.78
2022-09-30T01:26:14.128Z,94508.53
2022-09-30T01:29:07.987Z,94507.84
2022-09-30T01:31:53.705Z,94509.41
2022-09-30T01:34:37.684Z,94509.41
2022-09-30T01:37:15.237Z,94516.78
2022-09-30T01:40:07.368Z,94519.84
2022-09-30T01:43:27.917Z,94542.00
2022-09-30T01:46:01.207Z,94524.13
2022-09-30T01:48:40.541Z,94529.56
2022-09-30T01:51:16.871Z,94533.06
2022-09-30T01:54:12.688Z,94540.44
2022-09-30T01:56:43.938Z,94540.44
2022-09-30T01:59:29.343Z,94541.22
2022-09-30T02:02:12.873Z,94542.34
2022-09-30T02:04:45.486Z,94538.50
2022-09-30T02:07:18.740Z,94539.63
2022-09-30T02:09:51.802Z,94545.06
2022-09-30T02:12:21.334Z,94549.69
2022-09-30T02:14:55.524Z,94558.63
2022-09-30T02:17:28.708Z,94555.13
2022-09-30T02:20:26.616Z,94551.97
2022-09-30T02:23:10.302Z,94554.69
2022-09-30T02:25:41.976Z,94545.72
2022-09-30T02:28:14.079Z,94556.59
2022-09-30T02:30:45.819Z,94560.44
2022-09-30T02:33:17.462Z,94545.63
2022-09-30T02:36:00.871Z,94554.44
2022-09-30T02:38:33.171Z,94552.41
2022-09-30T02:41:13.652Z,94550.34
2022-09-30T02:43:40.374Z,94549.91
2022-09-30T02:46:13.155Z,94547.88
2022-09-30T02:48:42.211Z,94558.28
2022-09-30T02:51:19.973Z,94551.94
2022-09-30T02:54:02.472Z,94545.63
2022-09-30T02:57:04.544Z,94549.00
2022-09-30T02:59:31.235Z,94549.69
2022-09-30T03:01:58.117Z,94557.34
2022-09-30T03:04:28.970Z,94556.09
2022-09-30T03:06:55.777Z,94559.16
2022-09-30T03:09:27.494Z,94561.41
2022-09-30T03:12:06.264Z,94574.50
2022-09-30T03:14:57.516Z,94562.75
2022-09-30T03:17:50.403Z,94571.22
2022-09-30T03:20:25.741Z,94573.81
2022-09-30T03:23:10.318Z,94562.50
2022-09-30T03:26:07.165Z,94574.34
2022-09-30T03:28:44.974Z,94571.53
2022-09-30T03:31:33.342Z,94566.78
2022-09-30T03:34:05.920Z,94577.50
2022-09-30T03:36:43.720Z,94578.16
2022-09-30T03:39:22.136Z,94585.03
2022-09-30T03:41:56.922Z,94596.56
2022-09-30T03:44:37.189Z,94598.81
2022-09-30T03:47:11.146Z,94605.34
2022-09-30T03:49:47.818Z,94604.56
2022-09-30T03:52:15.047Z,94613.03
2022-09-30T03:54:49.100Z,94614.63
2022-09-30T03:57:15.742Z,94618.13
2022-09-30T03:59:42.330Z,94611.59
2022-09-30T04:02:09.522Z,94622.88
2022-09-30T04:04:36.549Z,94612.81
2022-09-30T04:07:04.164Z,94615.53
2022-09-30T04:09:30.686Z,94617.56
2022-09-30T04:11:57.252Z,94617.25
2022-09-30T04:14:23.723Z,94622.34
2022-09-30T04:16:53.834Z,94623.94
2022-09-30T04:19:20.753Z,94625.16
2022-09-30T04:21:47.353Z,94633.47
2022-09-30T04:24:16.109Z,94624.16
2022-09-30T04:26:42.587Z,94631.19
2022-09-30T04:29:09.090Z,94639.00
2022-09-30T04:31:35.682Z,94624.31
2022-09-30T04:34:02.319Z,94637.56
2022-09-30T04:36:28.987Z,94639.13
2022-09-30T04:38:55.523Z,94631.44
2022-09-30T04:41:22.217Z,94634.47
2022-09-30T04:43:49.079Z,94634.47
2022-09-30T04:46:17.881Z,94636.06
2022-09-30T04:48:45.206Z,94642.28
2022-09-30T04:51:17.488Z,94643.44
2022-09-30T04:53:44.176Z,94650.41
2022-09-30T04:56:11.590Z,94663.97
2022-09-30T04:58:38.495Z,94660.81
2022-09-30T05:01:10.915Z,94660.03
2022-09-30T05:03:37.782Z,94671.22
2022-09-30T05:06:05.677Z,94675.53
2022-09-30T05:08:32.935Z,94668.50
2022-09-30T05:11:02.078Z,94663.84
2022-09-30T05:13:34.174Z,94667.03
2022-09-30T05:16:01.271Z,94659.69
2022-09-30T05:18:28.149Z,94662.88
2022-09-30T05:20:55.956Z,94669.41
2022-09-30T05:23:23.441Z,94666.69
2022-09-30T05:25:50.880Z,94675.97
2022-09-30T05:28:17.961Z,94678.69
2022-09-30T05:30:45.049Z,94671.66
2022-09-30T05:33:13.465Z,94685.22
2022-09-30T05:35:41.324Z,94682.50
2022-09-30T05:38:08.898Z,94687.94
2022-09-30T05:40:38.346Z,94687.16
2022-09-30T05:43:05.637Z,94683.78
2022-09-30T05:45:32.335Z,94682.63
2022-09-30T05:47:59.099Z,94679.59
2022-09-30T05:50:26.124Z,94695.19
2022-09-30T05:52:53.095Z,94694.53
2022-09-30T05:55:20.788Z,94702.84
2022-09-30T05:57:51.564Z,94701.03
2022-09-30T06:00:19.591Z,94715.19
2022-09-30T06:02:46.380Z,94716.56
2022-09-30T06:05:13.130Z,94723.34
2022-09-30T06:07:40.025Z,94727.94
2022-09-30T06:10:08.860Z,94723.84
2022-09-30T06:12:35.613Z,94717.56
2022-09-30T06:15:02.146Z,94726.41
2022-09-30T06:17:28.656Z,94725.53
2022-09-30T06:19:55.209Z,94739.00
2022-09-30T06:22:21.743Z,94741.66
2022-09-30T06:24:51.556Z,94738.84
2022-09-30T06:27:21.469Z,94741.47
2022-09-30T06:29:48.050Z,94732.41
2022-09-30T06:32:14.613Z,94736.59
2022-09-30T06:34:41.108Z,94740.34
2022-09-30T06:37:07.682Z,94741.81
2022-09-30T06:39:34.239Z,94735.91
2022-09-30T06:42:00.731Z,94738.53
2022-09-30T06:44:27.228Z,94734.09
2022-09-30T06:46:54.507Z,94741.69
2022-09-30T06:49:21.734Z,94743.47
2022-09-30T06:51:48.205Z,94733.94
2022-09-30T06:54:14.799Z,94745.84
2022-09-30T06:56:41.275Z,94747.97
2022-09-30T06:59:07.899Z,94746.25
2022-09-30T07:01:34.381Z,94749.97
2022-09-30T07:04:01.135Z,94751.44
2022-09-30T07:06:27.611Z,94751.63
2022-09-30T07:08:54.206Z,94755.34
2022-09-30T07:11:20.938Z,94755.31
2022-09-30T07:13:47.924Z,94759.03
2022-09-30T07:16:16.324Z,94758.06
2022-09-30T07:18:43.678Z,94770.81
2022-09-30T07:21:11.164Z,94779.63
2022-09-30T07:23:38.319Z,94769.81
2022-09-30T07:26:05.163Z,94777.13
2022-09-30T07:28:36.049Z,94769.94
2022-09-30T07:31:31.232Z,94775.97
2022-09-30T07:33:55.330Z,94772.75
2022-09-30T07:36:26.176Z,94763.25
2022-09-30T07:38:57.269Z,94772.84
2022-09-30T07:41:27.041Z,94771.41
2022-09-30T07:43:57.369Z,94771.59
2022-09-30T07:46:29.940Z,94771.31
2022-09-30T07:48:58.928Z,94767.88
2022-09-30T07:51:28.664Z,94770.75
2022-09-30T07:53:57.218Z,94774.78
2022-09-30T07:56:25.005Z,94779.25
2022-09-30T07:58:55.885Z,94777.84
2022-09-30T08:01:23.831Z,94772.19
2022-09-30T08:03:54.099Z,94776.59
2022-09-30T08:06:22.520Z,94783.47
2022-09-30T08:08:52.333Z,94784.84
2022-09-30T08:11:19.266Z,94783.78
2022-09-30T08:13:56.610Z,94790.84
2022-09-30T08:16:24.455Z,94791.19
2022-09-30T08:18:59.192Z,94802.91
2022-09-30T08:21:26.362Z,94795.13
2022-09-30T08:23:52.987Z,94792.41
2022-09-30T08:26:19.644Z,94794.41
2022-09-30T08:28:47.086Z,94802.53
2022-09-30T08:31:16.397Z,94807.53
2022-09-30T08:33:43.175Z,94813.59
2022-09-30T08:36:12.832Z,94817.34
2022-09-30T08:38:40.206Z,94812.88
2022-09-30T08:41:26.933Z,94811.50
2022-09-30T08:43:56.253Z,94820.38
2022-09-30T08:46:41.963Z,94815.56
2022-09-30T08:49:28.876Z,94819.78
2022-09-30T08:51:58.888Z,94815.91
2022-09-30T08:54:32.974Z,94824.13
2022-09-30T08:57:03.739Z,94838.97
2022-09-30T08:59:38.827Z,94839.78
2022-09-30T09:02:21.343Z,94839.06
2022-09-30T09:04:50.119Z,94843.47
2022-09-30T09:07:29.313Z,94846.28
2022-09-30T09:10:10.938Z,94851.47
2022-09-30T09:13:05.027Z,94857.44
2022-09-30T09:16:02.102Z,94864.19
2022-09-30T09:18:41.648Z,94857.41
2022-09-30T09:21:20.321Z,94862.38
2022-09-30T09:23:49.626Z,94866.25
2022-09-30T09:26:19.334Z,94857.09
2022-09-30T09:28:59.939Z,94866.22
2022-09-30T09:31:26.836Z,94862.47
2022-09-30T09:33:59.772Z,94864.91
2022-09-30T09:36:44.624Z,94862.69
2022-09-30T09:39:39.497Z,94875.06
2022-09-30T09:42:41.470Z,94864.25
2022-09-30T09:45:21.987Z,94866.38
2022-09-30T09:47:54.709Z,94870.03
2022-09-30T09:50:28.908Z,94878.03
2022-09-30T09:53:05.071Z,94872.25
2022-09-30T09:55:31.534Z,94868.00
2022-09-30T09:58:14.294Z,94866.78
2022-09-30T10:00:41.689Z,94868.00
2022-09-30T10:03:16.001Z,94872.66
2022-09-30T10:05:42.647Z,94863.72
2022-09-30T10:08:09.066Z,94854.00
2022-09-30T10:10:45.857Z,94851.28
2022-09-30T10:13:17.654Z,94857.97
2022-09-30T10:15:44.713Z,94858.66
2022-09-30T10:18:47.118Z,94868.00
2022-09-30T10:21:22.829Z,94860.44
2022-09-30T10:23:49.530Z,94867.44
2022-09-30T10:26:25.183Z,94871.28
2022-09-30T10:28:56.881Z,94873.59
2022-09-30T10:31:28.381Z,94864.63
2022-09-30T10:34:12.334Z,94862.75
2022-09-30T10:36:43.320Z,94867.50
2022-09-30T10:39:29.288Z,94875.34
2022-09-30T10:42:06.720Z,94874.22
2022-09-30T10:44:41.669Z,94866.00
2022-09-30T10:47:08.674Z,94856.19
2022-09-30T10:50:02.418Z,94857.22
2022-09-30T10:52:31.890Z,94874.31
2022-09-30T10:55:00.836Z,94875.41
2022-09-30T10:57:29.788Z,94895.28
2022-09-30T11:00:01.443Z,94899.22
2022-09-30T11:02:48.400Z,94902.88
2022-09-30T11:05:22.644Z,94890.13
2022-09-30T11:08:00.197Z,94899.56
2022-09-30T11:10:49.533Z,94907.78
2022-09-30T11:13:42.974Z,94915.31
2022-09-30T11:16:09.467Z,94906.47
2022-09-30T11:18:45.161Z,94919.44
2022-09-30T11:21:29.913Z,94916.31
2022-09-30T11:24:25.882Z,94914.81
2022-09-30T11:27:20.762Z,94903.56
2022-09-30T11:29:50.330Z,94902.09
2022-09-30T11:32:53.188Z,94903.56
2022-09-30T11:35:26.533Z,94906.25
2022-09-30T11:38:28.883Z,94902.13
2022-09-30T11:40:58.303Z,94898.84
2022-09-30T11:43:35.183Z,94902.66
2022-09-30T11:46:13.977Z,94905.31
2022-09-30T11:48:52.336Z,94915.84
2022-09-30T11:51:24.432Z,94913.09
2022-09-30T11:54:04.485Z,94923.69
2022-09-30T11:56:49.803Z,94902.72
2022-09-30T11:59:28.568Z,94899.94
2022-09-30T12:02:00.335Z,94898.19
2022-09-30T12:04:35.433Z,94898.72
2022-09-30T12:07:18.774Z,94899.97
2022-09-30T12:09:51.814Z,94905.00
2022-09-30T12:12:19.675Z,94902.25
2022-09-30T12:15:06.794Z,94912.41
2022-09-30T12:17:45.002Z,94912.84
2022-09-30T12:20:37.801Z,94916.38
2022-09-30T12:23:42.048Z,94918.41
2022-09-30T12:26:16.592Z,94926.66
2022-09-30T12:28:48.892Z,94931.78
2022-09-30T12:31:52.613Z,94914.56
2022-09-30T12:34:32.757Z,94920.09
2022-09-30T12:37:25.449Z,94917.72
2022-09-30T12:40:10.232Z,94914.25
2022-09-30T12:42:58.583Z,94916.25
2022-09-30T12:45:35.335Z,94919.34
2022-09-30T12:48:17.581Z,94916.97
2022-09-30T12:50:52.663Z,94919.72
2022-09-30T12:53:28.669Z,94916.25
2022-09-30T12:56:13.637Z,94919.41
2022-09-30T12:58:47.829Z,94918.25
2022-09-30T13:01:18.006Z,94918.25
2022-09-30T13:04:16.281Z,94915.06
2022-09-30T13:06:45.532Z,94910.81
2022-09-30T13:09:12.170Z,94917.09
2022-09-30T13:11:57.586Z,94911.59
2022-09-30T13:14:43.171Z,94913.97
2022-09-30T13:17:28.244Z,94907.41
2022-09-30T13:20:50.349Z,94913.78
2022-09-30T13:23:46.310Z,94900.97
2022-09-30T13:26:34.373Z,94911.91
2022-09-30T13:29:19.444Z,94905.19
2022-09-30T13:32:06.094Z,94905.59
2022-09-30T13:34:56.253Z,94895.44
2022-09-30T13:37:41.523Z,94898.59
2022-09-30T13:40:49.816Z,94892.38
2022-09-30T13:43:41.665Z,94900.28
2022-09-30T13:46:43.707Z,94891.81
2022-09-30T13:49:34.364Z,94898.56
2022-09-30T13:52:31.763Z,94895.56
2022-09-30T13:55:04.447Z,94901.41
2022-09-30T13:57:48.718Z,94903.38
2022-09-30T14:00:18.876Z,94900.25
2022-09-30T14:03:06.373Z,94908.16
2022-09-30T14:05:42.446Z,94910.16
2022-09-30T14:08:47.669Z,94917.91
2022-09-30T14:11:14.103Z,94922.56
2022-09-30T14:14:07.831Z,94921.97
2022-09-30T14:17:05.416Z,94925.72
2022-09-30T14:19:32.062Z,94934.47
2022-09-30T14:22:03.890Z,94927.13
2022-09-30T14:24:37.608Z,94933.75
2022-09-30T14:27:29.246Z,94926.69
2022-09-30T14:30:37.478Z,94925.97
2022-09-30T14:33:25.336Z,94920.03
2022-09-30T14:35:53.964Z,94914.47
2022-09-30T14:38:26.719Z,94916.56
2022-09-30T14:40:56.502Z,94914.28
2022-09-30T14:43:29.934Z,94914.63
2022-09-30T14:45:56.983Z,94921.31
2022-09-30T14:48:27.346Z,94919.75
2022-09-30T14:51:01.551Z,94928.78
2022-09-30T14:53:32.444Z,94926.91
2022-09-30T14:56:00.835Z,94927.31
2022-09-30T14:58:38.760Z,94922.63
2022-09-30T15:01:17.784Z,94925.22
2022-09-30T15:03:53.236Z,94926.91
2022-09-30T15:06:33.061Z,94935.13
2022-09-30T15:09:05.827Z,94933.50
2022-09-30T15:11:38.639Z,94936.97
2022-09-30T15:14:13.839Z,94938.50
2022-09-30T15:17:17.194Z,94941.56
2022-09-30T15:19:44.044Z,94936.06
2022-09-30T15:22:13.388Z,94937.22
2022-09-30T15:24:40.918Z,94929.00
2022-09-30T15:27:16.506Z,94935.25
2022-09-30T15:29:59.764Z,94938.34
2022-09-30T15:32:35.314Z,94941.00
2022-09-30T15:35:14.358Z,94937.00
2022-09-30T15:37:41.726Z,94941.63
2022-09-30T15:40:24.154Z,94941.88
2022-09-30T15:42:55.588Z,94951.53
2022-09-30T15:45:38.745Z,94943.94
2022-09-30T15:48:24.034Z,94951.25
2022-09-30T15:50:52.448Z,94960.19
2022-09-30T15:53:48.271Z,94961.22
2022-09-30T15:56:26.294Z,94956.53
2022-09-30T15:59:02.587Z,94959.25
2022-09-30T16:01:39.693Z,94958.38
2022-09-30T16:04:08.138Z,94967.75
2022-09-30T16:06:40.779Z,94966.09
2022-09-30T16:09:32.188Z,94970.72
2022-09-30T16:12:12.486Z,94983.94
2022-09-30T16:15:08.440Z,94987.06
2022-09-30T16:17:39.288Z,94994.78
2022-09-30T16:20:26.468Z,95001.69
2022-09-30T16:22:54.573Z,95002.75
2022-09-30T16:25:21.171Z,95001.34
2022-09-30T16:27:53.413Z,95001.03
2022-09-30T16:30:20.849Z,94999.03
2022-09-30T16:32:50.836Z,95001.22
2022-09-30T16:35:22.811Z,95005.44
2022-09-30T16:37:51.145Z,95004.91
2022-09-30T16:40:23.899Z,95011.81
2022-09-30T16:42:51.909Z,95006.25
2022-09-30T16:45:18.575Z,95009.28
2022-09-30T16:47:45.411Z,95015.47
2022-09-30T16:50:23.934Z,95022.00
2022-09-30T16:52:50.490Z,95020.75
2022-09-30T16:55:17.237Z,95023.06
2022-09-30T16:57:43.932Z,95030.03
2022-09-30T17:00:14.127Z,95024.47
2022-09-30T17:02:40.796Z,95027.91
2022-09-30T17:05:12.764Z,95025.13
2022-09-30T17:07:39.491Z,95021.13
2022-09-30T17:10:06.736Z,95030.47
2022-09-30T17:12:33.297Z,95034.28
2022-09-30T17:15:00.032Z,95033.03
2022-09-30T17:17:26.619Z,95039.97
2022-09-30T17:19:53.137Z,95028.19
2022-09-30T17:22:19.696Z,95038.66
2022-09-30T17:24:46.236Z,95040.16
2022-09-30T17:27:12.855Z,95043.59
2022-09-30T17:29:42.042Z,95046.25
2022-09-30T17:32:09.043Z,95047.75
2022-09-30T17:34:35.622Z,95056.28
2022-09-30T17:37:02.348Z,95052.31
2022-09-30T17:39:28.954Z,95047.19
2022-09-30T17:41:55.589Z,95047.56
2022-09-30T17:44:22.303Z,95060.00
2022-09-30T17:46:48.877Z,95048.63
2022-09-30T17:49:16.971Z,95049.78
2022-09-30T17:51:45.210Z,95052.41
2022-09-30T17:54:11.776Z,95058.22
2022-09-30T17:56:38.420Z,95056.97
2022-09-30T17:59:04.981Z,95050.28
2022-09-30T18:01:31.853Z,95056.09
2022-09-30T18:04:00.392Z,95058.38
2022-09-30T18:06:26.875Z,95049.47
2022-09-30T18:08:53.400Z,95051.59
2022-09-30T18:11:25.148Z,95053.88
2022-09-30T18:13:56.050Z,95057.75
2022-09-30T18:16:23.066Z,95053.78
2022-09-30T18:18:52.855Z,95061.50
2022-09-30T18:21:19.594Z,95062.34
2022-09-30T18:23:46.194Z,95054.84
2022-09-30T18:26:12.924Z,95069.63
2022-09-30T18:28:39.531Z,95070.78
2022-09-30T18:31:07.351Z,95071.91
2022-09-30T18:33:34.507Z,95070.31
2022-09-30T18:36:01.298Z,95073.03
2022-09-30T18:38:27.975Z,95087.84
2022-09-30T18:40:54.671Z,95083.19
2022-09-30T18:43:24.141Z,95086.25
2022-09-30T18:45:56.142Z,95092.06
2022-09-30T18:48:23.873Z,95093.53
2022-09-30T18:50:50.930Z,95093.88
2022-09-30T18:53:22.159Z,95091.50
2022-09-30T18:55:49.133Z,95097.78
2022-09-30T18:58:17.036Z,95097.69
2022-09-30T19:00:44.399Z,95102.56
2022-09-30T19:03:11.107Z,95093.50
2022-09-30T19:05:37.756Z,95088.72
2022-09-30T19:08:04.336Z,95094.53
2022-09-30T19:10:30.956Z,95080.78
2022-09-30T19:12:57.596Z,95084.31
2022-09-30T19:15:24.344Z,95083.84
2022-09-30T19:17:51.039Z,95091.25
2022-09-30T19:20:17.783Z,95098.31
2022-09-30T19:22:44.922Z,95087.75
2022-09-30T19:25:12.080Z,95077.63
2022-09-30T19:27:40.692Z,95077.63
2022-09-30T19:30:09.441Z,95085.81
2022-09-30T19:32:36.064Z,95083.06
2022-09-30T19:35:07.981Z,95079.56
2022-09-30T19:37:34.513Z,95079.91
2022-09-30T19:40:10.984Z,95073.63
2022-09-30T19:42:45.212Z,95072.84
2022-09-30T19:45:11.901Z,95070.91
2022-09-30T19:47:38.494Z,95069.00
2022-09-30T19:50:05.315Z,95074.44
2022-09-30T19:52:33.272Z,95079.91
2022-09-30T19:55:12.481Z,95084.91
2022-09-30T19:57:42.595Z,95071.59
2022-09-30T20:00:10.871Z,95070.03
2022-09-30T20:02:38.073Z,95064.91
2022-09-30T20:05:04.969Z,95064.91
2022-09-30T20:07:31.539Z,95062.53
2022-09-30T20:09:58.248Z,95061.72
2022-09-30T20:12:24.804Z,95056.25
2022-09-30T20:14:51.346Z,95057.88
2022-09-30T20:17:18.081Z,95059.81
2022-09-30T20:19:44.760Z,95061.38
2022-09-30T20:22:12.123Z,95058.66
2022-09-30T20:24:38.808Z,95073.44
2022-09-30T20:27:05.380Z,95072.97
2022-09-30T20:29:32.094Z,95071.41
2022-09-30T20:31:58.746Z,95071.41
2022-09-30T20:34:25.322Z,95078.00
2022-09-30T20:36:51.949Z,95077.19
2022-09-30T20:39:18.474Z,95073.66
2022-09-30T20:41:45.493Z,95076.41
2022-09-30T20:44:12.380Z,95065.47
2022-09-30T20:46:40.159Z,95069.00
2022-09-30T20:49:07.136Z,95064.66
2022-09-30T20:51:34.226Z,95059.22
2022-09-30T20:54:01.086Z,95065.47
2022-09-30T20:56:39.326Z,95070.94
2022-09-30T20:59:16.712Z,95075.59
2022-09-30T21:01:43.524Z,95080.25
2022-09-30T21:04:10.248Z,95079.47
2022-09-30T21:06:36.821Z,95082.53
2022-09-30T21:09:03.439Z,95083.66
2022-09-30T21:11:30.442Z,95086.41
2022-09-30T21:13:57.498Z,95087.88
2022-09-30T21:16:25.249Z,95087.09
2022-09-30T21:18:53.105Z,95091.75
2022-09-30T21:21:21.126Z,95085.47
2022-09-30T21:23:47.685Z,95094.59
2022-09-30T21:26:16.859Z,95097.22
2022-09-30T21:28:48.716Z,95098.78
2022-09-30T21:31:20.705Z,95095.59
2022-09-30T21:33:51.841Z,95106.53
2022-09-30T21:36:18.539Z,95099.47
2022-09-30T21:38:45.084Z,95109.59
2022-09-30T21:41:11.973Z,95109.94
2022-09-30T21:43:38.540Z,95109.94
2022-09-30T21:46:07.918Z,95111.41
2022-09-30T21:48:35.767Z,95102.78
2022-09-30T21:51:03.788Z,95105.84
2022-09-30T21:53:30.831Z,95108.91
2022-09-30T21:55:59.761Z,95104.63
2022-09-30T21:58:28.253Z,95105.75
2022-09-30T22:01:00.966Z,95106.09
2022-09-30T22:03:32.791Z,95099.38
2022-09-30T22:05:59.332Z,95101.66
2022-09-30T22:08:26.026Z,95104.28
2022-09-30T22:10:52.660Z,95098.72
2022-09-30T22:13:19.609Z,95096.69
2022-09-30T22:15:47.065Z,95109.41
2022-09-30T22:18:20.600Z,95111.22
2022-09-30T22:20:47.982Z,95102.59
2022-09-30T22:23:15.129Z,95106.00
2022-09-30T22:25:41.700Z,95111.78
2022-09-30T22:28:08.413Z,95108.97
2022-09-30T22:30:35.294Z,95104.97
2022-09-30T22:33:02.096Z,95110.31
2022-09-30T22:35:28.709Z,95119.50
2022-09-30T22:37:55.332Z,95120.19
2022-09-30T22:40:22.080Z,95127.13
2022-09-30T22:42:48.585Z,95130.53
2022-09-30T22:45:15.256Z,95134.38
2022-09-30T22:47:42.053Z,95134.72
2022-09-30T22:50:09.002Z,95128.81
2022-09-30T22:52:35.528Z,95129.16
2022-09-30T22:55:02.070Z,95132.66
2022-09-30T22:57:28.750Z,95136.19
2022-09-30T22:59:55.334Z,95138.91
2022-09-30T23:02:22.066Z,95141.63
2022-09-30T23:04:48.631Z,95145.94
2022-09-30T23:07:15.243Z,95142.09
2022-09-30T23:09:41.893Z,95141.75
2022-09-30T23:12:08.582Z,95138.22
2022-09-30T23:14:35.470Z,95149.59
2022-09-30T23:17:02.144Z,95148.44
2022-09-30T23:19:28.766Z,95159.34
2022-09-30T23:21:55.581Z,95166.72
2022-09-30T23:24:22.357Z,95161.72
2022-09-30T23:26:48.960Z,95159.81
2022-09-30T23:29:15.993Z,95163.34
2022-09-30T23:31:42.915Z,95167.66
2022-09-30T23:34:09.958Z,95168.44
2022-09-30T23:36:37.229Z,95174.34
2022-09-30T23:39:11.707Z,95183.66
2022-09-30T23:41:38.729Z,95185.72
2022-09-30T23:44:06.153Z,95184.91
2022-09-30T23:46:35.115Z,95191.16
2022-09-30T23:49:01.837Z,95191.97
2022-09-30T23:51:28.638Z,95200.91
2022-09-30T23:53:55.175Z,95187.63
2022-09-30T23:56:21.808Z,95195.81
2022-09-30T23:58:48.558Z,95201.59
